sensor_id;sensor_type;location;lat;lon;timestamp;pressure;altitude;pressure_sealevel;temperature;humidity
29935;BME280;19905;53.370;-6.314;2023-05-16T00:02:14;102265.13;;;9.03;100.00
29935;BME280;19905;53.370;-6.314;2023-05-16T00:04:43;102264.31;;;9.01;100.00
29935;BME280;19905;53.370;-6.314;2023-05-16T00:07:12;102269.53;;;9.03;100.00
29935;BME280;19905;53.370;-6.314;2023-05-16T00:09:40;102275.06;;;8.97;100.00
29935;BME280;19905;53.370;-6.314;2023-05-16T00:12:09;102272.50;;;8.95;100.00
29935;BME280;19905;53.370;-6.314;2023-05-16T00:14:37;102268.22;;;8.93;100.00
29935;BME280;19905;53.370;-6.314;2023-05-16T00:17:08;102276.09;;;8.94;100.00
29935;BME280;19905;53.370;-6.314;2023-05-16T00:19:38;102279.03;;;8.86;100.00
29935;BME280;19905;53.370;-6.314;2023-05-16T00:22:08;102280.03;;;8.84;100.00
29935;BME280;19905;53.370;-6.314;2023-05-16T00:24:37;102280.19;;;8.81;100.00
29935;BME280;19905;53.370;-6.314;2023-05-16T00:27:06;102286.50;;;8.77;100.00
29935;BME280;19905;53.370;-6.314;2023-05-16T00:29:34;102281.72;;;8.66;100.00
29935;BME280;19905;53.370;-6.314;2023-05-16T00:32:03;102283.06;;;8.54;100.00
29935;BME280;19905;53.370;-6.314;2023-05-16T00:34:36;102275.25;;;8.53;100.00
29935;BME280;19905;53.370;-6.314;2023-05-16T00:37:04;102277.22;;;8.48;100.00
29935;BME280;19905;53.370;-6.314;2023-05-16T00:39:33;102275.38;;;8.50;100.00
29935;BME280;19905;53.370;-6.314;2023-05-16T00:42:02;102281.63;;;8.47;100.00
29935;BME280;19905;53.370;-6.314;2023-05-16T00:44:30;102272.94;;;8.45;100.00
29935;BME280;19905;53.370;-6.314;2023-05-16T00:46:59;102277.47;;;8.42;100.00
29935;BME280;19905;53.370;-6.314;2023-05-16T00:49:29;102271.44;;;8.39;100.00
29935;BME280;19905;53.370;-6.314;2023-05-16T00:51:59;102280.94;;;8.42;100.00
29935;BME280;19905;53.370;-6.314;2023-05-16T00:54:29;102279.13;;;8.44;100.00
29935;BME280;19905;53.370;-6.314;2023-05-16T00:56:58;102283.78;;;8.37;100.00
29935;BME280;19905;53.370;-6.314;2023-05-16T00:59:26;102290.94;;;8.34;100.00
29935;BME280;19905;53.370;-6.314;2023-05-16T01:01:55;102289.19;;;8.33;100.00
29935;BME280;19905;53.370;-6.314;2023-05-16T01:04:23;102284.41;;;8.22;100.00
29935;BME280;19905;53.370;-6.314;2023-05-16T01:06:53;102277.34;;;8.23;100.00
29935;BME280;19905;53.370;-6.314;2023-05-16T01:09:27;102274.78;;;8.21;100.00
29935;BME280;19905;53.370;-6.314;2023-05-16T01:12:01;102275.72;;;8.20;100.00
29935;BME280;19905;53.370;-6.314;2023-05-16T01:14:40;102284.41;;;8.22;100.00
29935;BME280;19905;53.370;-6.314;2023-05-16T01:17:21;102281.84;;;8.21;100.00
29935;BME280;19905;53.370;-6.314;2023-05-16T01:19:59;102264.66;;;8.12;100.00
29935;BME280;19905;53.370;-6.314;2023-05-16T01:22:40;102270.03;;;8.09;100.00
29935;BME280;19905;53.370;-6.314;2023-05-16T01:25:27;102273.69;;;8.05;100.00
29935;BME280;19905;53.370;-6.314;2023-05-16T01:28:01;102259.75;;;8.03;100.00
29935;BME280;19905;53.370;-6.314;2023-05-16T01:30:32;102262.44;;;8.01;100.00
29935;BME280;19905;53.370;-6.314;2023-05-16T01:33:02;102271.13;;;8.03;100.00
29935;BME280;19905;53.370;-6.314;2023-05-16T01:35:31;102267.69;;;8.01;100.00
29935;BME280;19905;53.370;-6.314;2023-05-16T01:38:03;102267.22;;;7.92;100.00
29935;BME280;19905;53.370;-6.314;2023-05-16T01:40:40;102271.69;;;7.89;100.00
29935;BME280;19905;53.370;-6.314;2023-05-16T01:43:18;102276.28;;;7.84;100.00
29935;BME280;19905;53.370;-6.314;2023-05-16T01:45:56;102287.97;;;7.77;100.00
29935;BME280;19905;53.370;-6.314;2023-05-16T01:48:34;102279.28;;;7.75;100.00
29935;BME280;19905;53.370;-6.314;2023-05-16T01:51:05;102281.41;;;7.66;100.00
29935;BME280;19905;53.370;-6.314;2023-05-16T01:53:37;102285.31;;;7.55;100.00
29935;BME280;19905;53.370;-6.314;2023-05-16T01:56:10;102288.09;;;7.51;100.00
29935;BME280;19905;53.370;-6.314;2023-05-16T01:58:44;102282.41;;;7.39;100.00
29935;BME280;19905;53.370;-6.314;2023-05-16T02:01:15;102288.13;;;7.27;100.00
29935;BME280;19905;53.370;-6.314;2023-05-16T02:03:44;102292.63;;;7.24;100.00
29935;BME280;19905;53.370;-6.314;2023-05-16T02:06:12;102290.41;;;7.13;100.00
29935;BME280;19905;53.370;-6.314;2023-05-16T02:08:41;102308.28;;;7.03;100.00
29935;BME280;19905;53.370;-6.314;2023-05-16T02:11:09;102299.78;;;6.97;100.00
29935;BME280;19905;53.370;-6.314;2023-05-16T02:13:38;102303.28;;;6.96;100.00
29935;BME280;19905;53.370;-6.314;2023-05-16T02:16:09;102288.53;;;6.92;100.00
29935;BME280;19905;53.370;-6.314;2023-05-16T02:18:38;102292.25;;;6.86;100.00
29935;BME280;19905;53.370;-6.314;2023-05-16T02:21:07;102295.81;;;6.85;100.00
29935;BME280;19905;53.370;-6.314;2023-05-16T02:23:35;102301.97;;;6.84;100.00
29935;BME280;19905;53.370;-6.314;2023-05-16T02:26:04;102316.03;;;6.83;100.00
29935;BME280;19905;53.370;-6.314;2023-05-16T02:28:32;102302.75;;;6.86;100.00
29935;BME280;19905;53.370;-6.314;2023-05-16T02:31:01;102299.22;;;6.87;100.00
29935;BME280;19905;53.370;-6.314;2023-05-16T02:33:32;102285.22;;;6.86;100.00
29935;BME280;19905;53.370;-6.314;2023-05-16T02:36:02;102295.34;;;6.74;100.00
29935;BME280;19905;53.370;-6.314;2023-05-16T02:38:30;102291.97;;;6.69;100.00
29935;BME280;19905;53.370;-6.314;2023-05-16T02:40:58;102298.00;;;6.72;100.00
29935;BME280;19905;53.370;-6.314;2023-05-16T02:43:27;102296.38;;;6.68;100.00
29935;BME280;19905;53.370;-6.314;2023-05-16T02:45:55;102297.22;;;6.69;100.00
29935;BME280;19905;53.370;-6.314;2023-05-16T02:48:24;102291.97;;;6.69;100.00
29935;BME280;19905;53.370;-6.314;2023-05-16T02:50:54;102286.72;;;6.69;100.00
29935;BME280;19905;53.370;-6.314;2023-05-16T02:53:23;102284.16;;;6.67;100.00
29935;BME280;19905;53.370;-6.314;2023-05-16T02:55:51;102281.44;;;6.70;100.00
29935;BME280;19905;53.370;-6.314;2023-05-16T02:58:19;102286.69;;;6.70;100.00
29935;BME280;19905;53.370;-6.314;2023-05-16T03:00:48;102277.16;;;6.68;100.00
29935;BME280;19905;53.370;-6.314;2023-05-16T03:03:16;102282.47;;;6.66;100.00
29935;BME280;19905;53.370;-6.314;2023-05-16T03:05:45;102286.09;;;6.62;100.00
29935;BME280;19905;53.370;-6.314;2023-05-16T03:08:16;102290.72;;;6.55;100.00
29935;BME280;19905;53.370;-6.314;2023-05-16T03:10:44;102292.53;;;6.53;100.00
29935;BME280;19905;53.370;-6.314;2023-05-16T03:13:13;102291.75;;;6.50;100.00
29935;BME280;19905;53.370;-6.314;2023-05-16T03:15:42;102299.75;;;6.47;100.00
29935;BME280;19905;53.370;-6.314;2023-05-16T03:18:11;102302.53;;;6.42;100.00
29935;BME280;19905;53.370;-6.314;2023-05-16T03:20:39;102304.47;;;6.37;100.00
29935;BME280;19905;53.370;-6.314;2023-05-16T03:23:08;102308.13;;;6.31;100.00
29935;BME280;19905;53.370;-6.314;2023-05-16T03:25:38;102306.47;;;6.29;100.00
29935;BME280;19905;53.370;-6.314;2023-05-16T03:28:07;102310.88;;;6.28;100.00
29935;BME280;19905;53.370;-6.314;2023-05-16T03:30:36;102308.19;;;6.30;100.00
29935;BME280;19905;53.370;-6.314;2023-05-16T03:33:04;102316.28;;;6.24;100.00
29935;BME280;19905;53.370;-6.314;2023-05-16T03:35:33;102319.75;;;6.24;100.00
29935;BME280;19905;53.370;-6.314;2023-05-16T03:38:02;102311.91;;;6.23;100.00
29935;BME280;19905;53.370;-6.314;2023-05-16T03:40:31;102306.81;;;6.18;100.00
29935;BME280;19905;53.370;-6.314;2023-05-16T03:43:02;102304.94;;;6.22;100.00
29935;BME280;19905;53.370;-6.314;2023-05-16T03:45:30;102303.31;;;6.19;100.00
29935;BME280;19905;53.370;-6.314;2023-05-16T03:47:59;102307.78;;;6.16;100.00
29935;BME280;19905;53.370;-6.314;2023-05-16T03:50:27;102310.50;;;6.13;100.00
29935;BME280;19905;53.370;-6.314;2023-05-16T03:52:56;102307.00;;;6.12;100.00
29935;BME280;19905;53.370;-6.314;2023-05-16T03:55:25;102314.94;;;6.10;100.00
29935;BME280;19905;53.370;-6.314;2023-05-16T03:57:54;102325.44;;;6.10;100.00
29935;BME280;19905;53.370;-6.314;2023-05-16T04:00:24;102316.66;;;6.11;100.00
29935;BME280;19905;53.370;-6.314;2023-05-16T04:02:54;102310.63;;;6.08;100.00
29935;BME280;19905;53.370;-6.314;2023-05-16T04:05:22;102313.47;;;6.02;100.00
29935;BME280;19905;53.370;-6.314;2023-05-16T04:07:51;102321.69;;;5.90;100.00
29935;BME280;19905;53.370;-6.314;2023-05-16T04:10:20;102323.66;;;5.81;100.00
29935;BME280;19905;53.370;-6.314;2023-05-16T04:12:48;102328.06;;;5.81;100.00
29935;BME280;19905;53.370;-6.314;2023-05-16T04:15:17;102324.16;;;5.66;100.00
29935;BME280;19905;53.370;-6.314;2023-05-16T04:17:48;102328.66;;;5.61;100.00
29935;BME280;19905;53.370;-6.314;2023-05-16T04:20:17;102326.97;;;5.60;100.00
29935;BME280;19905;53.370;-6.314;2023-05-16T04:22:46;102327.75;;;5.62;100.00
29935;BME280;19905;53.370;-6.314;2023-05-16T04:25:14;102325.13;;;5.62;100.00
29935;BME280;19905;53.370;-6.314;2023-05-16T04:27:43;102329.47;;;5.63;100.00
29935;BME280;19905;53.370;-6.314;2023-05-16T04:30:12;102326.09;;;5.59;100.00
29935;BME280;19905;53.370;-6.314;2023-05-16T04:32:42;102330.31;;;5.65;100.00
29935;BME280;19905;53.370;-6.314;2023-05-16T04:35:12;102331.09;;;5.67;100.00
29935;BME280;19905;53.370;-6.314;2023-05-16T04:37:41;102344.19;;;5.69;100.00
29935;BME280;19905;53.370;-6.314;2023-05-16T04:40:10;102342.31;;;5.72;100.00
29935;BME280;19905;53.370;-6.314;2023-05-16T04:42:40;102341.38;;;5.75;100.00
29935;BME280;19905;53.370;-6.314;2023-05-16T04:45:10;102340.47;;;5.76;100.00
29935;BME280;19905;53.370;-6.314;2023-05-16T04:47:40;102344.84;;;5.75;100.00
29935;BME280;19905;53.370;-6.314;2023-05-16T04:50:09;102343.91;;;5.78;100.00
29935;BME280;19905;53.370;-6.314;2023-05-16T04:52:39;102344.84;;;5.75;100.00
29935;BME280;19905;53.370;-6.314;2023-05-16T04:55:09;102350.09;;;5.75;100.00
29935;BME280;19905;53.370;-6.314;2023-05-16T04:57:38;102350.94;;;5.76;100.00
29935;BME280;19905;53.370;-6.314;2023-05-16T05:00:07;102355.25;;;5.78;100.00
29935;BME280;19905;53.370;-6.314;2023-05-16T05:02:38;102358.66;;;5.80;100.00
29935;BME280;19905;53.370;-6.314;2023-05-16T05:05:07;102359.38;;;5.85;100.00
29935;BME280;19905;53.370;-6.314;2023-05-16T05:07:38;102355.00;;;5.86;100.00
29935;BME280;19905;53.370;-6.314;2023-05-16T05:10:08;102362.59;;;5.97;100.00
29935;BME280;19905;53.370;-6.314;2023-05-16T05:12:37;102364.25;;;5.99;100.00
29935;BME280;19905;53.370;-6.314;2023-05-16T05:15:06;102364.16;;;6.02;100.00
29935;BME280;19905;53.370;-6.314;2023-05-16T05:17:35;102358.78;;;6.07;100.00
29935;BME280;19905;53.370;-6.314;2023-05-16T05:20:06;102353.31;;;6.13;100.00
29935;BME280;19905;53.370;-6.314;2023-05-16T05:22:36;102356.66;;;6.18;100.00
29935;BME280;19905;53.370;-6.314;2023-05-16T05:25:07;102360.16;;;6.19;100.00
29935;BME280;19905;53.370;-6.314;2023-05-16T05:27:36;102360.09;;;6.20;100.00
29935;BME280;19905;53.370;-6.314;2023-05-16T05:30:06;102363.44;;;6.25;100.00
29935;BME280;19905;53.370;-6.314;2023-05-16T05:32:34;102360.81;;;6.25;100.00
29935;BME280;19905;53.370;-6.314;2023-05-16T05:35:04;102368.47;;;6.31;100.00
29935;BME280;19905;53.370;-6.314;2023-05-16T05:37:33;102367.53;;;6.34;100.00
29935;BME280;19905;53.370;-6.314;2023-05-16T05:40:02;102370.81;;;6.41;100.00
29935;BME280;19905;53.370;-6.314;2023-05-16T05:42:32;102375.03;;;6.46;100.00
29935;BME280;19905;53.370;-6.314;2023-05-16T05:45:01;102374.88;;;6.51;100.00
29935;BME280;19905;53.370;-6.314;2023-05-16T05:47:30;102375.59;;;6.56;100.00
29935;BME280;19905;53.370;-6.314;2023-05-16T05:49:59;102376.53;;;6.53;100.00
29935;BME280;19905;53.370;-6.314;2023-05-16T05:52:28;102368.59;;;6.55;100.00
29935;BME280;19905;53.370;-6.314;2023-05-16T05:54:57;102379.00;;;6.58;100.00
29935;BME280;19905;53.370;-6.314;2023-05-16T05:57:26;102382.31;;;6.65;100.00
29935;BME280;19905;53.370;-6.314;2023-05-16T05:59:56;102379.41;;;6.72;100.00
29935;BME280;19905;53.370;-6.314;2023-05-16T06:02:24;102381.88;;;6.77;100.00
29935;BME280;19905;53.370;-6.314;2023-05-16T06:04:53;102379.22;;;6.78;100.00
29935;BME280;19905;53.370;-6.314;2023-05-16T06:07:22;102378.13;;;6.84;100.00
29935;BME280;19905;53.370;-6.314;2023-05-16T06:09:50;102392.97;;;6.85;100.00
29935;BME280;19905;53.370;-6.314;2023-05-16T06:12:19;102397.16;;;6.91;100.00
29935;BME280;19905;53.370;-6.314;2023-05-16T06:14:47;102400.31;;;7.02;100.00
29935;BME280;19905;53.370;-6.314;2023-05-16T06:17:17;102397.53;;;7.05;100.00
29935;BME280;19905;53.370;-6.314;2023-05-16T06:19:46;102400.06;;;7.08;100.00
29935;BME280;19905;53.370;-6.314;2023-05-16T06:22:14;102398.25;;;7.10;100.00
29935;BME280;19905;53.370;-6.314;2023-05-16T06:24:43;102405.16;;;7.12;100.00
29935;BME280;19905;53.370;-6.314;2023-05-16T06:27:11;102406.84;;;7.15;100.00
29935;BME280;19905;53.370;-6.314;2023-05-16T06:29:40;102405.88;;;7.18;100.00
29935;BME280;19905;53.370;-6.314;2023-05-16T06:32:08;102418.38;;;7.11;100.00
29935;BME280;19905;53.370;-6.314;2023-05-16T06:34:40;102409.31;;;7.20;100.00
29935;BME280;19905;53.370;-6.314;2023-05-16T06:37:09;102422.16;;;7.27;100.00
29935;BME280;19905;53.370;-6.314;2023-05-16T06:39:37;102421.22;;;7.30;100.00
29935;BME280;19905;53.370;-6.314;2023-05-16T06:42:06;102419.81;;;7.45;100.00
29935;BME280;19905;53.370;-6.314;2023-05-16T06:44:34;102424.41;;;7.63;100.00
29935;BME280;19905;53.370;-6.314;2023-05-16T06:47:03;102421.66;;;7.66;100.00
29935;BME280;19905;53.370;-6.314;2023-05-16T06:49:32;102421.44;;;7.72;100.00
29935;BME280;19905;53.370;-6.314;2023-05-16T06:52:02;102424.81;;;7.76;100.00
29935;BME280;19905;53.370;-6.314;2023-05-16T06:54:31;102431.72;;;7.78;100.00
29935;BME280;19905;53.370;-6.314;2023-05-16T06:57:00;102421.84;;;7.85;100.00
29935;BME280;19905;53.370;-6.314;2023-05-16T06:59:30;102426.75;;;7.94;100.00
29935;BME280;19905;53.370;-6.314;2023-05-16T07:01:58;102433.38;;;8.04;100.00
29935;BME280;19905;53.370;-6.314;2023-05-16T07:04:27;102425.38;;;8.07;100.00
29935;BME280;19905;53.370;-6.314;2023-05-16T07:06:56;102429.28;;;8.19;100.00
29935;BME280;19905;53.370;-6.314;2023-05-16T07:09:26;102430.66;;;8.29;100.00
29935;BME280;19905;53.370;-6.314;2023-05-16T07:11:55;102435.84;;;8.31;100.00
29935;BME280;19905;53.370;-6.314;2023-05-16T07:14:23;102430.69;;;8.28;100.00
29935;BME280;19905;53.370;-6.314;2023-05-16T07:16:52;102436.28;;;8.44;100.00
29935;BME280;19905;53.370;-6.314;2023-05-16T07:19:21;102439.44;;;8.52;100.00
29935;BME280;19905;53.370;-6.314;2023-05-16T07:21:50;102441.78;;;8.59;100.00
29935;BME280;19905;53.370;-6.314;2023-05-16T07:24:18;102440.00;;;8.60;100.00
29935;BME280;19905;53.370;-6.314;2023-05-16T07:26:48;102436.97;;;8.69;100.00
29935;BME280;19905;53.370;-6.314;2023-05-16T07:29:17;102439.38;;;8.75;100.00
29935;BME280;19905;53.370;-6.314;2023-05-16T07:31:47;102432.84;;;8.84;100.00
29935;BME280;19905;53.370;-6.314;2023-05-16T07:34:15;102433.53;;;8.89;100.00
29935;BME280;19905;53.370;-6.314;2023-05-16T07:36:47;102430.44;;;9.00;100.00
29935;BME280;19905;53.370;-6.314;2023-05-16T07:39:15;102426.50;;;9.10;100.00
29935;BME280;19905;53.370;-6.314;2023-05-16T07:41:44;102422.59;;;9.19;100.00
29935;BME280;19905;53.370;-6.314;2023-05-16T07:44:16;102412.78;;;9.22;100.00
29935;BME280;19905;53.370;-6.314;2023-05-16T07:46:44;102422.28;;;9.26;100.00
29935;BME280;19905;53.370;-6.314;2023-05-16T07:49:13;102422.00;;;9.32;100.00
29935;BME280;19905;53.370;-6.314;2023-05-16T07:51:41;102415.03;;;9.31;100.00
29935;BME280;19905;53.370;-6.314;2023-05-16T07:54:10;102419.81;;;9.42;100.00
29935;BME280;19905;53.370;-6.314;2023-05-16T07:56:39;102413.41;;;9.48;100.00
29935;BME280;19905;53.370;-6.314;2023-05-16T07:59:07;102416.06;;;9.48;100.00
29935;BME280;19905;53.370;-6.314;2023-05-16T08:01:42;102417.63;;;9.52;100.00
29935;BME280;19905;53.370;-6.314;2023-05-16T08:04:11;102423.50;;;9.58;100.00
29935;BME280;19905;53.370;-6.314;2023-05-16T08:06:41;102426.38;;;9.73;100.00
29935;BME280;19905;53.370;-6.314;2023-05-16T08:09:09;102423.44;;;9.79;100.00
29935;BME280;19905;53.370;-6.314;2023-05-16T08:11:38;102422.31;;;9.84;100.00
29935;BME280;19905;53.370;-6.314;2023-05-16T08:14:07;102417.31;;;9.97;100.00
29935;BME280;19905;53.370;-6.314;2023-05-16T08:16:35;102411.25;;;10.14;100.00
29935;BME280;19905;53.370;-6.314;2023-05-16T08:19:06;102410.88;;;10.22;100.00
29935;BME280;19905;53.370;-6.314;2023-05-16T08:21:34;102407.91;;;10.29;100.00
29935;BME280;19905;53.370;-6.314;2023-05-16T08:24:05;102413.38;;;10.43;100.00
29935;BME280;19905;53.370;-6.314;2023-05-16T08:26:34;102408.59;;;10.52;100.00
29935;BME280;19905;53.370;-6.314;2023-05-16T08:29:03;102405.50;;;10.61;100.00
29935;BME280;19905;53.370;-6.314;2023-05-16T08:31:33;102400.81;;;10.66;100.00
29935;BME280;19905;53.370;-6.314;2023-05-16T08:34:02;102393.06;;;10.80;100.00
29935;BME280;19905;53.370;-6.314;2023-05-16T08:36:34;102396.97;;;10.90;100.00
29935;BME280;19905;53.370;-6.314;2023-05-16T08:39:02;102387.41;;;11.05;100.00
29935;BME280;19905;53.370;-6.314;2023-05-16T08:41:32;102390.75;;;11.09;100.00
29935;BME280;19905;53.370;-6.314;2023-05-16T08:44:00;102386.72;;;11.17;100.00
29935;BME280;19905;53.370;-6.314;2023-05-16T08:46:32;102389.13;;;11.39;100.00
29935;BME280;19905;53.370;-6.314;2023-05-16T08:49:03;102379.13;;;11.44;100.00
29935;BME280;19905;53.370;-6.314;2023-05-16T08:51:36;102382.09;;;11.56;100.00
29935;BME280;19905;53.370;-6.314;2023-05-16T08:54:10;102374.06;;;11.57;100.00
29935;BME280;19905;53.370;-6.314;2023-05-16T08:56:40;102377.91;;;11.67;100.00
29935;BME280;19905;53.370;-6.314;2023-05-16T08:59:10;102378.56;;;11.88;100.00
29935;BME280;19905;53.370;-6.314;2023-05-16T09:01:40;102376.25;;;11.98;100.00
29935;BME280;19905;53.370;-6.314;2023-05-16T09:04:09;102374.69;;;11.78;100.00
29935;BME280;19905;53.370;-6.314;2023-05-16T09:06:40;102372.22;;;11.91;100.00
29935;BME280;19905;53.370;-6.314;2023-05-16T09:09:09;102362.31;;;11.94;100.00
29935;BME280;19905;53.370;-6.314;2023-05-16T09:11:39;102364.81;;;11.98;100.00
29935;BME280;19905;53.370;-6.314;2023-05-16T09:14:07;102359.94;;;12.06;100.00
29935;BME280;19905;53.370;-6.314;2023-05-16T09:16:35;102357.53;;;12.17;100.00
29935;BME280;19905;53.370;-6.314;2023-05-16T09:19:06;102354.88;;;12.17;100.00
29935;BME280;19905;53.370;-6.314;2023-05-16T09:21:35;102354.94;;;12.31;100.00
29935;BME280;19905;53.370;-6.314;2023-05-16T09:24:07;102348.53;;;12.35;100.00
29935;BME280;19905;53.370;-6.314;2023-05-16T09:26:38;102350.81;;;12.41;100.00
29935;BME280;19905;53.370;-6.314;2023-05-16T09:29:10;102360.41;;;12.44;100.00
29935;BME280;19905;53.370;-6.314;2023-05-16T09:31:40;102347.44;;;12.69;100.00
29935;BME280;19905;53.370;-6.314;2023-05-16T09:34:09;102344.69;;;12.85;100.00
29935;BME280;19905;53.370;-6.314;2023-05-16T09:36:39;102355.09;;;12.74;100.00
29935;BME280;19905;53.370;-6.314;2023-05-16T09:39:14;102360.34;;;12.60;100.00
29935;BME280;19905;53.370;-6.314;2023-05-16T09:41:42;102360.00;;;12.66;100.00
29935;BME280;19905;53.370;-6.314;2023-05-16T09:44:11;102360.16;;;12.63;100.00
29935;BME280;19905;53.370;-6.314;2023-05-16T09:46:40;102357.00;;;12.86;100.00
29935;BME280;19905;53.370;-6.314;2023-05-16T09:49:11;102353.34;;;13.03;100.00
29935;BME280;19905;53.370;-6.314;2023-05-16T09:51:40;102355.59;;;13.25;100.00
29935;BME280;19905;53.370;-6.314;2023-05-16T09:54:10;102360.63;;;13.30;100.00
29935;BME280;19905;53.370;-6.314;2023-05-16T09:56:48;102358.22;;;13.11;100.00
29935;BME280;19905;53.370;-6.314;2023-05-16T09:59:17;102347.94;;;13.19;100.00
29935;BME280;19905;53.370;-6.314;2023-05-16T10:01:47;102350.94;;;13.43;100.00
29935;BME280;19905;53.370;-6.314;2023-05-16T10:04:18;102347.59;;;13.68;100.00
29935;BME280;19905;53.370;-6.314;2023-05-16T10:06:49;102358.13;;;13.84;100.00
29935;BME280;19905;53.370;-6.314;2023-05-16T10:09:22;102360.63;;;13.99;100.00
29935;BME280;19905;53.370;-6.314;2023-05-16T10:11:52;102351.50;;;14.04;100.00
29935;BME280;19905;53.370;-6.314;2023-05-16T10:14:24;102352.97;;;14.22;100.00
29935;BME280;19905;53.370;-6.314;2023-05-16T10:16:54;102353.75;;;14.10;100.00
29935;BME280;19905;53.370;-6.314;2023-05-16T10:19:25;102342.69;;;14.03;100.00
29935;BME280;19905;53.370;-6.314;2023-05-16T10:21:56;102345.66;;;14.26;100.00
29935;BME280;19905;53.370;-6.314;2023-05-16T10:24:42;102343.44;;;14.32;100.00
29935;BME280;19905;53.370;-6.314;2023-05-16T10:27:12;102352.59;;;14.68;100.00
29935;BME280;19905;53.370;-6.314;2023-05-16T10:29:42;102346.75;;;14.88;100.00
29935;BME280;19905;53.370;-6.314;2023-05-16T10:32:22;102346.34;;;15.07;100.00
29935;BME280;19905;53.370;-6.314;2023-05-16T10:34:52;102348.34;;;15.29;100.00
29935;BME280;19905;53.370;-6.314;2023-05-16T10:37:23;102340.91;;;15.34;100.00
29935;BME280;19905;53.370;-6.314;2023-05-16T10:39:54;102351.78;;;15.06;100.00
29935;BME280;19905;53.370;-6.314;2023-05-16T10:42:24;102347.94;;;14.71;100.00
29935;BME280;19905;53.370;-6.314;2023-05-16T10:44:54;102354.59;;;14.64;100.00
29935;BME280;19905;53.370;-6.314;2023-05-16T10:47:32;102345.13;;;14.60;100.00
29935;BME280;19905;53.370;-6.314;2023-05-16T10:50:01;102348.34;;;14.78;100.00
29935;BME280;19905;53.370;-6.314;2023-05-16T10:52:33;102340.47;;;15.02;100.00
29935;BME280;19905;53.370;-6.314;2023-05-16T10:55:05;102346.88;;;15.25;100.00
29935;BME280;19905;53.370;-6.314;2023-05-16T10:57:33;102346.47;;;15.31;100.00
29935;BME280;19905;53.370;-6.314;2023-05-16T11:00:08;102337.69;;;15.42;100.00
29935;BME280;19905;53.370;-6.314;2023-05-16T11:02:49;102349.41;;;15.39;100.00
29935;BME280;19905;53.370;-6.314;2023-05-16T11:05:19;102354.84;;;14.74;100.00
29935;BME280;19905;53.370;-6.314;2023-05-16T11:08:01;102344.97;;;15.02;100.00
29935;BME280;19905;53.370;-6.314;2023-05-16T11:10:33;102344.72;;;15.30;100.00
29935;BME280;19905;53.370;-6.314;2023-05-16T11:13:03;102339.31;;;15.44;100.00
29935;BME280;19905;53.370;-6.314;2023-05-16T11:15:34;102336.84;;;15.41;100.00
29935;BME280;19905;53.370;-6.314;2023-05-16T11:18:07;102338.91;;;15.87;100.00
29935;BME280;19905;53.370;-6.314;2023-05-16T11:20:39;102338.97;;;15.49;100.00
29935;BME280;19905;53.370;-6.314;2023-05-16T11:23:22;102334.03;;;15.81;100.00
29935;BME280;19905;53.370;-6.314;2023-05-16T11:25:56;102327.06;;;15.91;100.00
29935;BME280;19905;53.370;-6.314;2023-05-16T11:28:28;102311.63;;;15.84;100.00
29935;BME280;19905;53.370;-6.314;2023-05-16T11:30:57;102318.91;;;16.06;100.00
29935;BME280;19905;53.370;-6.314;2023-05-16T11:33:30;102316.81;;;16.22;100.00
29935;BME280;19905;53.370;-6.314;2023-05-16T11:36:03;102313.81;;;15.66;100.00
29935;BME280;19905;53.370;-6.314;2023-05-16T11:38:42;102316.19;;;16.18;100.00
29935;BME280;19905;53.370;-6.314;2023-05-16T11:41:12;102308.03;;;16.09;100.00
29935;BME280;19905;53.370;-6.314;2023-05-16T11:43:44;102314.09;;;16.46;100.00
29935;BME280;19905;53.370;-6.314;2023-05-16T11:46:13;102314.88;;;16.59;100.00
29935;BME280;19905;53.370;-6.314;2023-05-16T11:48:44;102318.38;;;16.24;100.00
29935;BME280;19905;53.370;-6.314;2023-05-16T11:51:14;102319.53;;;15.85;100.00
29935;BME280;19905;53.370;-6.314;2023-05-16T11:53:46;102317.03;;;15.95;100.00
29935;BME280;19905;53.370;-6.314;2023-05-16T11:56:19;102306.38;;;16.19;100.00
29935;BME280;19905;53.370;-6.314;2023-05-16T11:58:50;102314.94;;;15.87;100.00
29935;BME280;19905;53.370;-6.314;2023-05-16T12:01:19;102308.25;;;16.06;100.00
29935;BME280;19905;53.370;-6.314;2023-05-16T12:03:54;102312.28;;;16.46;100.00
29935;BME280;19905;53.370;-6.314;2023-05-16T12:06:24;102319.09;;;16.50;100.00
29935;BME280;19905;53.370;-6.314;2023-05-16T12:08:55;102315.69;;;16.48;100.00
29935;BME280;19905;53.370;-6.314;2023-05-16T12:11:25;102325.78;;;15.84;100.00
29935;BME280;19905;53.370;-6.314;2023-05-16T12:13:53;102317.63;;;15.98;100.00
29935;BME280;19905;53.370;-6.314;2023-05-16T12:16:22;102319.53;;;15.85;100.00
29935;BME280;19905;53.370;-6.314;2023-05-16T12:18:53;102316.34;;;16.28;100.00
29935;BME280;19905;53.370;-6.314;2023-05-16T12:21:22;102311.94;;;16.51;100.00
29935;BME280;19905;53.370;-6.314;2023-05-16T12:23:54;102305.00;;;16.72;100.00
29935;BME280;19905;53.370;-6.314;2023-05-16T12:26:27;102309.34;;;16.38;100.00
29935;BME280;19905;53.370;-6.314;2023-05-16T12:28:57;102306.44;;;16.41;100.00
29935;BME280;19905;53.370;-6.314;2023-05-16T12:31:29;102305.03;;;16.24;100.00
29935;BME280;19905;53.370;-6.314;2023-05-16T12:33:59;102299.78;;;16.47;100.00
29935;BME280;19905;53.370;-6.314;2023-05-16T12:36:31;102315.66;;;16.37;100.00
29935;BME280;19905;53.370;-6.314;2023-05-16T12:39:01;102312.94;;;16.02;100.00
29935;BME280;19905;53.370;-6.314;2023-05-16T12:41:31;102303.38;;;16.35;100.00
29935;BME280;19905;53.370;-6.314;2023-05-16T12:44:10;102297.84;;;17.18;100.00
29935;BME280;19905;53.370;-6.314;2023-05-16T12:46:41;102297.03;;;17.28;100.00
29935;BME280;19905;53.370;-6.314;2023-05-16T12:49:11;102300.28;;;17.21;100.00
29935;BME280;19905;53.370;-6.314;2023-05-16T12:51:47;102295.78;;;16.99;100.00